Time;durP1;ratioP1;P1;durP2;ratioP2;P2;SDS_P1;SDS_P2;PMS_P1;PMS_P2;Temp;Humidity;BMP_temperature;BMP_pressure;BME280_temperature;BME280_humidity;BME280_pressure;Samples;Min_cycle;Max_cycle;Signal;HPM_P1;HPM_P2
2022/05/07 00:02:24;;;;;;;4.23;3.43;;;;;;;5.56;100.00;97256.22;10367812;28;20225;-55
2022/05/07 00:07:24;;;;;;;6.43;3.43;;;;;;;5.51;100.00;97253.97;10366338;28;20647;-57
2022/05/07 00:12:25;;;;;;;5.70;3.40;;;;;;;5.46;100.00;97247.44;10367951;28;20291;-53
2022/05/07 00:22:44;;;;;;;4.20;3.20;;;;;;;5.45;100.00;97245.78;10367100;28;20221;-52
2022/05/07 00:27:44;;;;;;;4.33;2.67;;;;;;;5.39;100.00;97247.06;10367293;28;20201;-53
2022/05/07 00:32:45;;;;;;;3.70;3.03;;;;;;;5.36;100.00;97245.50;10367155;28;20669;-52
2022/05/07 00:37:46;;;;;;;4.97;3.77;;;;;;;5.25;100.00;97242.00;10349262;28;20652;-61
2022/05/07 00:42:46;;;;;;;9.80;3.80;;;;;;;5.26;100.00;97241.91;10349160;28;20605;-61
2022/05/07 00:47:46;;;;;;;4.63;3.40;;;;;;;5.15;100.00;97234.06;10345609;28;20617;-60
2022/05/07 00:52:47;;;;;;;4.10;3.03;;;;;;;5.23;100.00;97236.94;10332486;28;20775;-59
2022/05/07 00:57:48;;;;;;;3.60;3.30;;;;;;;5.16;100.00;97233.09;10348788;28;20185;-58
2022/05/07 01:02:48;;;;;;;5.27;3.33;;;;;;;5.16;100.00;97238.31;10347983;28;20308;-53
2022/05/07 01:07:50;;;;;;;2.73;2.53;;;;;;;5.10;100.00;97236.13;10331930;28;20257;-52
2022/05/07 01:12:50;;;;;;;4.00;3.57;;;;;;;5.10;100.00;97224.00;10348716;28;20232;-53
2022/05/07 01:17:51;;;;;;;6.83;3.20;;;;;;;5.08;100.00;97223.25;10348605;28;20253;-54
2022/05/07 01:22:51;;;;;;;6.27;2.93;;;;;;;4.99;100.00;97216.97;10373563;28;20311;-52
2022/05/07 01:28:00;;;;;;;4.57;2.77;;;;;;;4.97;100.00;97216.25;10341532;28;20276;-55
2022/05/07 01:33:02;;;;;;;4.33;3.20;;;;;;;4.95;100.00;97218.13;10356115;28;20205;-57
2022/05/07 01:38:02;;;;;;;3.87;3.20;;;;;;;4.94;100.00;97213.03;10355433;28;20190;-53
2022/05/07 01:43:08;;;;;;;4.43;3.00;;;;;;;4.90;100.00;97222.81;10355795;28;20221;-53
2022/05/07 01:48:13;;;;;;;3.93;3.37;;;;;;;4.84;100.00;97218.06;10355155;28;20192;-54
2022/05/07 01:53:22;;;;;;;5.43;2.93;;;;;;;4.92;100.00;97205.38;10354882;28;20311;-55
2022/05/07 01:58:24;;;;;;;3.73;3.20;;;;;;;4.87;100.00;97211.81;10355343;28;20197;-53
2022/05/07 02:03:28;;;;;;;5.77;3.33;;;;;;;4.87;100.00;97204.88;10354575;28;20225;-52
2022/05/07 02:08:29;;;;;;;5.30;2.60;;;;;;;4.83;100.00;97204.25;10354499;28;20193;-55
2022/05/07 02:13:30;;;;;;;4.07;3.10;;;;;;;4.77;100.00;97209.03;10354518;28;20590;-54
2022/05/07 02:18:31;;;;;;;4.73;3.17;;;;;;;4.77;100.00;97214.25;10354456;28;20208;-53
2022/05/07 02:23:32;;;;;;;4.07;3.13;;;;;;;4.76;100.00;97209.97;10371823;28;20221;-55
2022/05/07 02:28:32;;;;;;;5.73;3.20;;;;;;;4.75;100.00;97203.16;10353784;28;20276;-54
2022/05/07 02:33:33;;;;;;;4.20;2.67;;;;;;;4.68;100.00;97209.69;10352898;28;20205;-55
2022/05/07 02:38:33;;;;;;;4.10;3.20;;;;;;;4.62;100.00;97192.78;10371087;28;20612;-52
2022/05/07 02:43:33;;;;;;;5.17;3.73;;;;;;;4.59;100.00;97199.00;10371082;28;20687;-59
2022/05/07 02:48:35;;;;;;;4.07;3.40;;;;;;;4.57;100.00;97200.06;10353602;28;20719;-60
2022/05/07 02:53:38;;;;;;;3.87;3.00;;;;;;;4.50;100.00;97204.00;10352488;28;20609;-60
2022/05/07 02:58:40;;;;;;;2.57;2.37;;;;;;;4.49;100.00;97199.75;10352907;28;20199;-60
2022/05/07 03:03:41;;;;;;;3.80;3.30;;;;;;;4.47;100.00;97207.63;10358231;28;20225;-58
2022/05/07 03:08:42;;;;;;;5.40;3.47;;;;;;;4.52;100.00;97196.94;10309722;28;20575;-57
2022/05/07 03:13:42;;;;;;;4.30;3.37;;;;;;;4.43;100.00;97198.44;10329068;28;20205;-57
2022/05/07 03:18:43;;;;;;;3.57;2.97;;;;;;;4.38;100.00;97203.94;10327291;28;20190;-57
2022/05/07 03:23:45;;;;;;;3.17;2.80;;;;;;;4.48;100.00;97198.94;10310974;28;20221;-53
2022/05/07 03:28:46;;;;;;;2.57;2.37;;;;;;;4.49;100.00;97202.34;10327206;28;20273;-57
2022/05/07 03:33:49;;;;;;;4.83;3.03;;;;;;;4.48;100.00;97206.72;10310803;28;20214;-53
2022/05/07 03:38:53;;;;;;;5.10;3.80;;;;;;;4.44;100.00;97206.09;10310993;28;20194;-55
2022/05/07 03:43:57;;;;;;;3.97;3.17;;;;;;;4.44;100.00;97198.31;10310221;28;20226;-52
2022/05/07 03:49:01;;;;;;;4.20;3.43;;;;;;;4.40;100.00;97201.22;10311025;28;20282;-52
2022/05/07 03:54:02;;;;;;;3.90;3.50;;;;;;;4.45;100.00;97202.56;10326284;28;20233;-53
2022/05/07 03:59:04;;;;;;;5.07;3.20;;;;;;;4.50;100.00;97204.84;10325937;28;20743;-54
2022/05/07 04:04:15;;;;;;;4.23;3.60;;;;;;;4.48;100.00;97206.72;10325481;28;20214;-54
2022/05/07 04:09:16;;;;;;;4.53;3.47;;;;;;;4.57;100.00;97210.44;10309705;28;20565;-55
2022/05/07 04:14:16;;;;;;;19.50;10.03;;;;;;;4.67;100.00;97218.41;10308889;28;20209;-60
2022/05/07 04:19:18;;;;;;;6.97;4.20;;;;;;;4.69;100.00;97217.38;10309293;28;20186;-54
2022/05/07 04:24:20;;;;;;;7.17;3.20;;;;;;;4.77;100.00;97227.22;10308739;28;20217;-52
2022/05/07 04:29:24;;;;;;;3.70;3.40;;;;;;;4.90;100.00;97227.16;10325053;28;20220;-52
2022/05/07 04:34:40;;;;;;;4.17;3.77;;;;;;;5.00;100.00;97231.59;10308560;28;20182;-52
2022/05/07 04:39:41;;;;;;;5.07;3.53;;;;;;;5.21;100.00;97223.22;10309073;28;20218;-53
2022/05/07 04:44:44;;;;;;;3.80;2.63;;;;;;;5.46;100.00;97224.06;10311817;28;20225;-61
2022/05/07 04:49:58;;;;;;;3.20;2.90;;;;;;;5.58;100.00;97225.75;10309515;28;20233;-61
2022/05/07 04:55:06;;;;;;;3.43;2.77;;;;;;;5.83;100.00;97227.34;10324885;28;20281;-59
2022/05/07 05:00:08;;;;;;;3.13;2.83;;;;;;;6.04;100.00;97231.94;10314490;28;20718;-58
2022/05/07 05:05:25;;;;;;;4.43;3.13;;;;;;;6.37;100.00;97219.91;10326752;28;20186;-59
2022/05/07 05:10:32;;;;;;;3.83;2.87;;;;;;;6.58;100.00;97239.09;10308108;28;20206;-58
2022/05/07 05:15:32;;;;;;;7.73;2.83;;;;;;;6.90;100.00;97230.53;10308087;28;20186;-54
2022/05/07 05:20:39;;;;;;;4.07;2.50;;;;;;;7.22;100.00;97236.78;10324281;28;20662;-57
2022/05/07 05:25:48;;;;;;;2.97;2.50;;;;;;;7.63;100.00;97235.22;10335714;28;20194;-56
2022/05/07 05:31:09;;;;;;;4.50;2.77;;;;;;;7.89;100.00;97232.22;10348453;28;20202;-60
2022/05/07 05:36:14;;;;;;;3.10;2.20;;;;;;;8.33;100.00;97231.16;10346804;28;20193;-60
2022/05/07 05:41:17;;;;;;;2.83;2.03;;;;;;;8.75;100.00;97238.09;10347724;28;20735;-60
2022/05/07 05:46:20;;;;;;;2.80;2.00;;;;;;;9.26;100.00;97239.75;10347877;28;20610;-56
2022/05/07 05:51:23;;;;;;;2.50;2.30;;;;;;;9.76;100.00;97237.97;10347285;28;20726;-57
2022/05/07 05:56:24;;;;;;;2.70;1.97;;;;;;;10.43;100.00;97238.03;10347714;28;20585;-57
2022/05/07 06:01:29;;;;;;;5.57;3.63;;;;;;;11.27;100.00;97218.75;10347445;28;20638;-59
2022/05/07 06:06:43;;;;;;;6.03;3.35;;;;;;;12.33;91.78;97202.25;10349197;28;20540;-57
2022/05/07 06:11:44;;;;;;;4.22;3.20;;;;;;;12.83;87.11;97190.13;10354601;28;20573;-60
2022/05/07 06:16:45;;;;;;;7.03;2.50;;;;;;;13.86;82.65;97176.69;10354458;28;20181;-60
2022/05/07 06:22:08;;;;;;;2.80;2.25;;;;;;;14.72;77.20;97132.19;10346012;28;20225;-60
2022/05/07 06:27:39;;;;;;;1.70;1.60;;;;;;;16.23;69.91;97067.25;10136376;29;20189;-59
2022/05/07 06:33:17;;;;;;;5.40;1.50;;;;;;;16.80;64.29;97008.47;10120353;29;20251;-60
2022/05/07 06:38:40;;;;;;;2.30;1.60;;;;;;;17.08;62.44;97000.63;10287126;28;20205;-61
2022/05/07 06:43:46;;;;;;;4.22;1.75;;;;;;;18.89;55.13;96897.03;10318727;28;20237;-60
2022/05/07 06:49:01;;;;;;;3.65;1.30;;;;;;;19.91;53.30;96909.13;10319988;28;20228;-59
2022/05/07 06:54:18;;;;;;;3.25;1.85;;;;;;;19.73;53.80;96928.38;10297308;28;20697;-60
2022/05/07 06:59:30;;;;;;;2.40;1.40;;;;;;;18.95;54.95;96950.34;10297777;28;21480;-60
2022/05/07 07:04:31;;;;;;;2.40;1.48;;;;;;;18.97;55.44;96980.16;10291098;28;20230;-59
2022/05/07 07:09:31;;;;;;;1.80;1.45;;;;;;;19.22;55.17;96977.72;10291243;28;20213;-59
2022/05/07 07:14:32;;;;;;;2.63;1.80;;;;;;;18.37;55.68;96972.88;10290044;28;20191;-59
2022/05/07 07:19:34;;;;;;;2.90;1.80;;;;;;;19.37;53.53;96951.75;10290494;28;20214;-62
2022/05/07 07:24:35;;;;;;;4.10;1.90;;;;;;;19.50;53.35;96966.84;10290994;28;20231;-62
2022/05/07 07:29:35;;;;;;;2.53;1.60;;;;;;;19.60;50.92;96906.13;10289276;28;20648;-61
2022/05/07 07:34:36;;;;;;;2.85;1.33;;;;;;;20.39;46.89;96818.19;10290462;28;20274;-61
2022/05/07 07:39:36;;;;;;;4.00;1.42;;;;;;;21.66;44.55;96795.66;10290024;28;20226;-60
2022/05/07 07:44:36;;;;;;;4.68;1.60;;;;;;;21.41;45.76;96846.38;10288607;28;20226;-61
2022/05/07 07:49:37;;;;;;;2.30;1.30;;;;;;;21.78;42.62;96766.38;10289833;28;20310;-62
2022/05/07 07:54:37;;;;;;;5.43;1.75;;;;;;;20.56;43.83;96761.75;10329051;28;20563;-62
2022/05/07 07:59:39;;;;;;;1.88;1.60;;;;;;;23.17;41.65;96799.06;10329914;28;20214;-60
2022/05/07 08:04:40;;;;;;;3.75;1.70;;;;;;;23.13;39.66;96728.44;10328909;28;20685;-60
2022/05/07 08:14:59;;;;;;;3.33;1.67;;;;;;;20.92;46.12;96880.88;10324034;28;20276;-58
2022/05/07 08:20:00;;;;;;;2.47;1.30;;;;;;;20.42;43.34;96782.34;10327076;28;20300;-58
2022/05/07 08:25:01;;;;;;;2.67;1.35;;;;;;;20.06;43.10;96760.72;10327908;28;20688;-59
2022/05/07 08:30:01;;;;;;;4.03;1.58;;;;;;;20.91;42.31;96783.34;10327171;28;20758;-56
2022/05/07 08:35:02;;;;;;;4.47;1.58;;;;;;;22.39;40.89;96777.00;10327650;28;20268;-61
2022/05/07 08:40:03;;;;;;;3.20;1.40;;;;;;;21.64;42.70;96807.56;10327615;28;20210;-59
2022/05/07 08:45:04;;;;;;;2.13;1.48;;;;;;;21.99;39.27;96724.19;10327226;28;20237;-59
2022/05/07 08:50:07;;;;;;;2.45;1.45;;;;;;;21.24;40.95;96765.38;10325264;28;20609;-59
2022/05/07 08:55:18;;;;;;;5.97;1.23;;;;;;;20.52;44.15;96832.41;10326321;28;20205;-60
2022/05/07 09:00:20;;;;;;;4.15;1.65;;;;;;;21.41;38.94;96694.47;10329576;28;20214;-61
2022/05/07 09:05:21;;;;;;;2.53;1.50;;;;;;;22.66;37.54;96694.56;10326662;28;20197;-62
2022/05/07 09:10:28;;;;;;;2.63;1.40;;;;;;;22.14;42.55;96838.50;10327253;28;20209;-62
2022/05/07 09:15:29;;;;;;;2.67;1.67;;;;;;;22.49;38.79;96736.38;10326487;28;20244;-63
2022/05/07 09:20:31;;;;;;;2.72;1.27;;;;;;;21.84;41.94;96802.81;10325567;28;20221;-62
2022/05/07 09:25:31;;;;;;;3.25;1.55;;;;;;;23.33;38.69;96766.25;10326803;28;20289;-62
2022/05/07 09:30:32;;;;;;;4.40;1.20;;;;;;;23.86;39.14;96790.31;10326412;28;20577;-58
2022/05/07 09:35:49;;;;;;;2.17;1.40;;;;;;;24.12;37.75;96751.41;10326655;28;20673;-63
2022/05/07 09:40:49;;;;;;;3.28;1.52;;;;;;;24.29;35.69;96680.97;10344249;28;20221;-63
2022/05/07 09:45:49;;;;;;;2.13;1.27;;;;;;;23.52;37.93;96742.00;10353115;28;20284;-62
2022/05/07 09:50:51;;;;;;;3.60;1.33;;;;;;;24.11;36.73;96730.25;10351844;28;20468;-63
2022/05/07 10:02:01;;;;;;;2.97;1.13;;;;;;;23.25;37.83;96723.06;10378144;28;20284;-63
2022/05/07 10:12:45;;;;;;;1.20;1.00;;;;;;;25.51;34.43;96675.59;10331655;28;20221;-61
2022/05/07 10:18:03;;;;;;;5.35;1.38;;;;;;;23.99;34.96;96644.69;10336288;28;20571;-61
2022/05/07 10:23:04;;;;;;;4.43;1.00;;;;;;;24.09;36.12;96689.50;10334785;28;20229;-62
2022/05/07 10:28:14;;;;;;;2.83;1.50;;;;;;;25.68;32.71;96615.66;10334763;28;20300;-62
2022/05/07 10:33:15;;;;;;;6.03;1.40;;;;;;;23.83;36.61;96684.53;10334605;28;20292;-60
2022/05/07 10:38:36;;;;;;;2.30;1.40;;;;;;;25.38;37.00;96759.13;10316696;28;20277;-61
2022/05/07 10:43:38;;;;;;;2.28;1.23;;;;;;;25.69;36.01;96733.44;10333592;28;20222;-61
2022/05/07 10:48:43;;;;;;;4.35;1.40;;;;;;;26.71;31.82;96614.47;10333951;28;20201;-60
2022/05/07 10:53:43;;;;;;;2.00;1.30;;;;;;;26.19;32.78;96628.66;10332849;28;20238;-61
2022/05/07 10:58:46;;;;;;;4.97;1.42;;;;;;;21.50;38.42;96644.31;10333513;28;20269;-60
2022/05/07 11:03:46;;;;;;;2.20;1.50;;;;;;;20.85;40.93;96723.00;10439846;22;20331;-57
2022/05/07 11:08:52;;;;;;;2.13;1.20;;;;;;;21.59;38.62;96680.28;10455653;28;20642;-60
2022/05/07 11:13:55;;;;;;;3.83;1.60;;;;;;;24.02;34.67;96641.50;10455453;28;20208;-58
2022/05/07 11:18:56;;;;;;;2.35;1.27;;;;;;;25.04;35.00;96686.88;10455581;28;20238;-60
2022/05/07 11:23:58;;;;;;;1.73;1.30;;;;;;;24.97;33.90;96646.03;10454730;28;20314;-59
2022/05/07 11:28:59;;;;;;;3.88;1.65;;;;;;;25.08;34.31;96661.16;10454968;28;20556;-57
2022/05/07 11:34:10;;;;;;;2.50;1.20;;;;;;;26.12;32.39;96640.44;10436865;28;20207;-61
2022/05/07 11:39:15;;;;;;;3.75;1.45;;;;;;;26.67;31.65;96619.53;10454357;28;20659;-60
2022/05/07 11:49:44;;;;;;;2.70;1.45;;;;;;;24.37;35.90;96675.22;10453974;28;20188;-58
2022/05/07 11:54:52;;;;;;;4.22;1.23;;;;;;;26.53;30.09;96552.03;10436125;28;20683;-61
2022/05/07 11:59:52;;;;;;;3.15;1.33;;;;;;;27.73;30.77;96632.75;10453757;28;20192;-59
2022/05/07 12:04:56;;;;;;;3.67;1.33;;;;;;;26.88;30.38;96560.50;10453139;28;20232;-61
2022/05/07 12:09:58;;;;;;;7.30;1.20;;;;;;;28.40;29.16;96600.34;10453361;28;20552;-63
2022/05/07 12:14:59;;;;;;;2.10;1.05;;;;;;;28.49;29.85;96600.63;10453015;28;20215;-60
2022/05/07 12:19:59;;;;;;;2.60;1.50;;;;;;;29.94;26.84;96549.28;10452957;28;20690;-61
2022/05/07 12:30:19;;;;;;;3.72;1.33;;;;;;;28.17;31.59;96641.38;10452749;28;20662;-63
2022/05/07 12:35:20;;;;;;;6.63;1.33;;;;;;;28.72;28.65;96564.16;10452231;28;20195;-59
2022/05/07 12:40:21;;;;;;;2.53;1.10;;;;;;;29.58;26.75;96507.22;10452384;28;20739;-61
2022/05/07 12:45:22;;;;;;;3.67;1.67;;;;;;;28.16;28.63;96513.16;10451934;28;20223;-61
2022/05/07 12:50:22;;;;;;;1.88;1.20;;;;;;;26.75;30.10;96532.22;10451509;28;20438;-59
2022/05/07 12:55:25;;;;;;;1.98;1.27;;;;;;;28.96;28.49;96574.28;10452031;28;20662;-61
2022/05/07 13:00:25;;;;;;;3.47;1.27;;;;;;;28.47;27.44;96498.47;10451258;28;20282;-58
2022/05/07 13:05:26;;;;;;;1.63;1.20;;;;;;;27.83;29.23;96551.16;10452071;28;20192;-59
2022/05/07 13:10:27;;;;;;;4.10;1.48;;;;;;;25.01;34.55;96613.09;10451277;28;20200;-60
2022/05/07 13:15:28;;;;;;;4.00;1.52;;;;;;;24.24;34.09;96573.84;10435701;28;20194;-57
2022/05/07 13:20:29;;;;;;;3.90;1.40;;;;;;;25.89;32.27;96587.91;10459550;28;20278;-62
2022/05/07 13:25:30;;;;;;;1.77;1.10;;;;;;;26.46;32.13;96609.75;10459591;28;20190;-59
2022/05/07 13:30:30;;;;;;;2.17;1.47;;;;;;;26.58;30.83;96553.13;10459548;28;20663;-59
2022/05/07 13:35:30;;;;;;;3.00;1.80;;;;;;;27.46;30.27;96581.03;10441370;28;20492;-60
2022/05/07 13:40:31;;;;;;;6.30;1.83;;;;;;;29.00;28.09;96537.56;10459411;28;20658;-62
2022/05/07 13:45:31;;;;;;;2.92;1.52;;;;;;;28.25;27.98;96498.03;10459029;28;20249;-59
2022/05/07 13:50:32;;;;;;;3.38;1.30;;;;;;;29.72;29.04;96593.75;10458799;28;20655;-58
2022/05/07 13:55:32;;;;;;;4.10;1.60;;;;;;;27.56;32.17;96616.03;10458715;28;20894;-57
2022/05/07 14:00:34;;;;;;;3.80;1.40;;;;;;;29.38;29.79;96602.66;10457954;28;20188;-60
2022/05/07 14:05:34;;;;;;;5.63;1.35;;;;;;;30.89;27.64;96587.41;10458502;28;20448;-59
2022/05/07 14:10:35;;;;;;;3.47;1.55;;;;;;;27.87;31.34;96589.13;10458090;28;20219;-61
2022/05/07 14:15:35;;;;;;;4.63;1.63;;;;;;;27.75;31.11;96575.97;10457863;28;20609;-60
2022/05/07 14:20:36;;;;;;;5.20;1.83;;;;;;;30.33;28.84;96605.91;10452028;28;20242;-61
2022/05/07 14:25:36;;;;;;;6.38;1.60;;;;;;;30.26;28.70;96589.22;10455855;28;20443;-60
2022/05/07 14:30:37;;;;;;;2.97;1.60;;;;;;;28.81;30.68;96591.34;10453685;28;20216;-58
2022/05/07 14:35:37;;;;;;;4.20;1.80;;;;;;;29.37;30.20;96594.84;10455702;28;20291;-59
2022/05/07 14:40:38;;;;;;;2.17;1.50;;;;;;;29.71;28.99;96565.16;10456828;28;20293;-56
2022/05/07 14:45:38;;;;;;;2.33;1.20;;;;;;;30.03;29.99;96625.91;10455844;28;20446;-59
2022/05/07 14:50:38;;;;;;;4.03;1.67;;;;;;;28.89;29.07;96512.56;10453748;28;20608;-60
2022/05/07 14:55:39;;;;;;;2.77;1.53;;;;;;;30.38;26.81;96510.44;10453902;28;20862;-60
2022/05/07 15:00:39;;;;;;;3.20;1.40;;;;;;;31.47;26.62;96540.31;10453418;28;20937;-61
2022/05/07 15:05:40;;;;;;;1.92;1.40;;;;;;;33.03;25.33;96543.38;10455076;28;20909;-61
2022/05/07 15:10:42;;;;;;;3.47;1.63;;;;;;;32.66;25.56;96545.25;10455504;28;20211;-61
2022/05/07 15:15:42;;;;;;;2.90;1.40;;;;;;;32.01;24.77;96467.63;10455720;28;20191;-57
2022/05/07 15:20:44;;;;;;;3.40;1.33;;;;;;;26.92;29.80;96440.59;10455249;28;20246;-58
2022/05/07 15:25:44;;;;;;;2.15;1.65;;;;;;;30.04;27.81;96509.47;10455131;28;20191;-59
2022/05/07 15:30:45;;;;;;;3.30;1.20;;;;;;;31.04;25.69;96476.34;10454945;28;20296;-60
2022/05/07 15:41:05;;;;;;;2.28;1.50;;;;;;;31.16;25.33;96448.78;10454097;28;20219;-61
2022/05/07 15:46:06;;;;;;;2.17;1.33;;;;;;;27.06;30.00;96467.78;10418910;28;20204;-59
2022/05/07 15:51:07;;;;;;;2.03;1.38;;;;;;;29.43;28.29;96512.75;10413194;28;20215;-58
2022/05/07 15:56:08;;;;;;;3.05;1.60;;;;;;;30.76;25.23;96440.19;10413140;28;20197;-58
2022/05/07 16:01:08;;;;;;;4.63;1.40;;;;;;;31.63;24.88;96456.97;10411850;28;20271;-60
2022/05/07 16:06:11;;;;;;;3.65;1.27;;;;;;;28.84;27.02;96423.63;10412718;28;20872;-60
2022/05/07 16:11:11;;;;;;;2.25;1.40;;;;;;;29.98;26.08;96443.09;10412355;28;20216;-59
2022/05/07 16:16:11;;;;;;;2.53;1.27;;;;;;;27.79;28.91;96431.66;10412134;28;20192;-59
2022/05/07 16:21:12;;;;;;;3.10;1.13;;;;;;;27.06;29.48;96430.13;10412028;28;20482;-61
2022/05/07 16:26:12;;;;;;;3.53;2.22;;;;;;;25.09;31.60;96433.06;10411420;28;20450;-59
2022/05/07 16:31:13;;;;;;;2.40;1.50;;;;;;;24.56;32.25;96451.59;10405792;28;20204;-60
2022/05/07 16:36:15;;;;;;;2.10;1.10;;;;;;;23.82;32.77;96449.34;10411538;28;20196;-58
2022/05/07 16:41:15;;;;;;;2.55;1.60;;;;;;;24.15;32.49;96451.16;10411228;28;20997;-60
2022/05/07 16:46:16;;;;;;;2.65;1.27;;;;;;;23.84;33.29;96471.31;10411287;28;20197;-61
2022/05/07 16:51:16;;;;;;;3.15;1.40;;;;;;;23.62;33.81;96496.16;10410382;28;20248;-60
2022/05/07 16:56:17;;;;;;;5.55;1.38;;;;;;;22.91;34.48;96485.09;10411051;28;20196;-58
2022/05/07 17:01:17;;;;;;;2.45;1.40;;;;;;;22.36;35.59;96502.50;10410151;28;20247;-57
2022/05/07 17:06:18;;;;;;;3.08;1.33;;;;;;;22.66;34.00;96470.25;10429925;22;20346;-62
2022/05/07 17:11:18;;;;;;;2.83;1.50;;;;;;;22.32;35.14;96496.84;10411480;28;20246;-62
2022/05/07 17:16:19;;;;;;;2.80;1.65;;;;;;;21.88;37.33;96563.09;10409496;28;20204;-62
2022/05/07 17:21:19;;;;;;;4.30;2.13;;;;;;;21.41;38.00;96568.38;10410414;28;20234;-61
2022/05/07 17:26:20;;;;;;;4.95;2.33;;;;;;;21.08;39.56;96618.44;10410338;28;20577;-62
2022/05/07 17:31:20;;;;;;;5.53;2.17;;;;;;;20.66;40.60;96650.31;10409435;28;20667;-62
2022/05/07 17:36:20;;;;;;;3.67;1.98;;;;;;;20.08;40.69;96638.97;10409918;28;20703;-62
2022/05/07 17:41:21;;;;;;;5.88;2.15;;;;;;;19.50;46.61;96811.94;10410081;28;20712;-59
2022/05/07 17:46:21;;;;;;;2.22;1.70;;;;;;;17.89;51.64;96904.78;10409734;28;20208;-61
2022/05/07 17:51:21;;;;;;;4.38;1.58;;;;;;;18.06;50.92;96886.69;10410024;28;20188;-61
2022/05/07 17:56:22;;;;;;;2.30;1.77;;;;;;;17.54;52.94;96931.28;10409385;28;20216;-61
2022/05/07 18:01:23;;;;;;;3.92;3.13;;;;;;;15.91;55.87;96954.84;10409901;28;20274;-63
2022/05/07 18:06:26;;;;;;;3.67;2.50;;;;;;;15.17;60.33;97016.28;10416455;28;20286;-55
2022/05/07 18:11:26;;;;;;;7.97;3.83;;;;;;;14.54;60.50;96989.19;10416934;28;20629;-57
2022/05/07 18:16:27;;;;;;;4.97;3.53;;;;;;;14.26;60.95;96995.78;10416757;28;20691;-58
2022/05/07 18:21:27;;;;;;;3.45;2.90;;;;;;;14.43;59.95;96962.22;10416403;28;20229;-58
2022/05/07 18:26:27;;;;;;;3.42;2.42;;;;;;;14.12;61.92;97009.69;10416415;28;20240;-60
2022/05/07 18:31:29;;;;;;;7.05;2.75;;;;;;;13.44;64.38;97039.97;10416315;28;20757;-59
2022/05/07 18:47:09;;;;;;;5.45;2.40;;;;;;;12.93;67.58;97074.31;10415640;28;20220;-57
2022/05/07 18:52:12;;;;;;;4.80;2.53;;;;;;;12.50;69.94;97098.03;10415432;28;20643;-56
2022/05/07 19:02:34;;;;;;;6.13;2.95;;;;;;;12.27;71.88;97098.59;10414862;28;20220;-58
2022/05/07 19:07:35;;;;;;;6.15;3.17;;;;;;;11.93;72.94;97099.41;10412154;28;20240;-58
2022/05/07 19:12:35;;;;;;;3.10;2.33;;;;;;;11.70;75.09;97104.31;10414067;28;20185;-60
2022/05/07 19:17:36;;;;;;;5.83;2.83;;;;;;;11.65;75.54;97111.81;10414777;28;20209;-58
2022/05/07 19:22:36;;;;;;;3.73;2.80;;;;;;;11.31;77.20;97111.72;10414117;28;20226;-61
2022/05/07 19:27:37;;;;;;;6.37;3.10;;;;;;;11.28;78.49;97115.47;10414234;28;20239;-60
2022/05/07 19:32:38;;;;;;;5.43;3.00;;;;;;;11.11;79.23;97109.25;10414027;28;20223;-58
2022/05/07 19:37:39;;;;;;;4.53;3.20;;;;;;;10.91;80.54;97124.31;10413591;28;20581;-58
2022/05/07 19:42:41;;;;;;;8.77;4.13;;;;;;;10.78;81.30;97123.84;10413367;28;20291;-60
2022/05/07 19:47:53;;;;;;;4.70;3.27;;;;;;;10.65;83.09;97126.81;10422008;28;20299;-57
2022/05/07 19:53:12;;;;;;;4.00;2.80;;;;;;;10.45;84.57;97136.56;10384823;28;20200;-60
2022/05/07 19:58:46;;;;;;;4.90;3.30;;;;;;;10.33;85.43;97135.94;10384189;28;20204;-63
2022/05/07 20:04:11;;;;;;;3.80;2.90;;;;;;;10.15;86.80;97144.53;10378209;28;20233;-59
2022/05/07 20:09:11;;;;;;;4.63;3.23;;;;;;;10.07;88.15;97147.00;10371378;28;20205;-60
2022/05/07 20:14:12;;;;;;;4.83;3.30;;;;;;;9.95;89.06;97148.16;10370739;28;20219;-56
2022/05/07 20:19:12;;;;;;;5.17;2.90;;;;;;;9.86;89.38;97156.84;10402164;28;20224;-58
2022/05/07 20:24:13;;;;;;;8.03;3.53;;;;;;;9.63;91.52;97165.84;10410537;28;20216;-58
2022/05/07 20:29:13;;;;;;;5.57;3.70;;;;;;;9.62;92.19;97166.78;10411290;28;20189;-60
2022/05/07 20:34:17;;;;;;;5.07;3.47;;;;;;;9.49;92.70;97168.88;10409902;28;20211;-59
2022/05/07 20:39:21;;;;;;;8.10;3.17;;;;;;;9.40;93.70;97165.31;10409584;28;20655;-57
2022/05/07 20:49:40;;;;;;;5.47;2.77;;;;;;;9.11;96.73;97173.09;10407935;28;20208;-56
2022/05/07 20:54:40;;;;;;;5.57;3.20;;;;;;;9.03;98.81;97179.00;10409422;28;20213;-57
2022/05/07 20:59:41;;;;;;;4.47;2.80;;;;;;;8.90;100.00;97184.50;10410206;28;20220;-59
2022/05/07 21:04:41;;;;;;;8.17;3.47;;;;;;;8.82;100.00;97186.13;10409076;28;20231;-55
2022/05/07 21:09:43;;;;;;;8.20;3.03;;;;;;;8.75;100.00;97183.22;10408579;28;20207;-57
2022/05/07 21:14:44;;;;;;;4.40;3.57;;;;;;;8.65;100.00;97190.19;10406386;28;20200;-54
2022/05/07 21:19:44;;;;;;;3.10;2.80;;;;;;;8.60;100.00;97192.41;10405904;28;20200;-54
2022/05/07 21:30:04;;;;;;;4.07;3.20;;;;;;;8.40;100.00;97194.88;10405294;28;20271;-53
2022/05/07 21:35:07;;;;;;;2.90;2.70;;;;;;;8.44;100.00;97193.72;10407953;28;20205;-59
2022/05/07 21:40:10;;;;;;;6.20;3.00;;;;;;;8.40;100.00;97200.94;10416493;28;20200;-55
2022/05/07 21:45:11;;;;;;;3.00;2.53;;;;;;;8.31;100.00;97203.50;10417428;28;20247;-52
2022/05/07 21:55:21;;;;;;;5.23;3.10;;;;;;;8.16;100.00;97208.22;10419779;28;20240;-53
2022/05/07 22:00:32;;;;;;;4.50;3.00;;;;;;;8.10;100.00;97198.31;10417653;28;20246;-55
2022/05/07 22:05:33;;;;;;;5.30;3.20;;;;;;;7.98;100.00;97202.78;10416710;28;20734;-53
2022/05/07 22:10:34;;;;;;;4.53;3.37;;;;;;;7.88;100.00;97201.91;10416500;28;20199;-57
2022/05/07 22:15:34;;;;;;;3.87;2.90;;;;;;;7.86;100.00;97205.44;10417752;28;20220;-51
2022/05/07 22:20:35;;;;;;;3.70;3.23;;;;;;;7.81;100.00;97207.63;10416445;28;20197;-52
2022/05/07 22:25:35;;;;;;;3.70;3.33;;;;;;;7.78;100.00;97212.25;10415988;28;20761;-54
2022/05/07 22:30:36;;;;;;;4.77;3.40;;;;;;;7.76;100.00;97214.97;10416534;28;20271;-54
2022/05/07 22:35:36;;;;;;;4.07;3.67;;;;;;;7.75;100.00;97215.94;10415540;28;20722;-52
2022/05/07 22:40:37;;;;;;;6.13;2.80;;;;;;;7.62;100.00;97213.50;10416312;28;20191;-52
2022/05/07 22:45:37;;;;;;;4.70;3.10;;;;;;;7.66;100.00;97216.72;10415088;28;20319;-51
2022/05/07 22:50:37;;;;;;;5.17;3.17;;;;;;;7.58;100.00;97213.88;10414780;28;20188;-51
2022/05/07 22:55:38;;;;;;;9.27;3.77;;;;;;;7.43;100.00;97211.59;10415239;28;20269;-53
2022/05/07 23:00:38;;;;;;;4.03;3.30;;;;;;;7.46;100.00;97216.53;10414905;28;20577;-54
2022/05/07 23:05:38;;;;;;;4.83;3.63;;;;;;;7.39;100.00;97220.59;10434467;23;20601;-54
2022/05/07 23:10:39;;;;;;;6.07;3.87;;;;;;;7.23;100.00;97222.78;10414540;28;20193;-54
2022/05/07 23:15:39;;;;;;;7.53;3.40;;;;;;;7.21;100.00;97222.06;10414794;28;20294;-57
2022/05/07 23:20:40;;;;;;;5.20;3.87;;;;;;;7.13;100.00;97220.09;10414404;28;20188;-55
2022/05/07 23:25:43;;;;;;;6.20;3.73;;;;;;;7.09;100.00;97222.13;10414264;28;20216;-55
2022/05/07 23:30:44;;;;;;;8.13;4.13;;;;;;;7.08;100.00;97217.03;10414264;28;20227;-54
2022/05/07 23:35:48;;;;;;;6.93;4.23;;;;;;;7.06;100.00;97221.50;10413363;28;20219;-54
2022/05/07 23:40:51;;;;;;;12.27;4.10;;;;;;;7.10;100.00;97226.34;10413737;28;20615;-54
2022/05/07 23:45:51;;;;;;;7.77;4.13;;;;;;;7.07;100.00;97217.97;10413117;28;20269;-54
2022/05/07 23:50:52;;;;;;;7.77;3.93;;;;;;;6.96;100.00;97218.81;10413326;28;20204;-54
2022/05/07 23:55:53;;;;;;;4.90;4.10;;;;;;;6.95;100.00;97207.59;10412686;28;20220;-54
